createdAt,value
2023-03-16T00:02:25.577Z,29.95
2023-03-16T00:04:52.533Z,35.08
2023-03-16T00:07:19.327Z,31.05
2023-03-16T00:09:47.009Z,30.10
2023-03-16T00:12:16.526Z,28.25
2023-03-16T00:14:44.835Z,31.63
2023-03-16T00:17:19.438Z,32.03
2023-03-16T00:19:55.509Z,30.60
2023-03-16T00:22:24.639Z,28.13
2023-03-16T00:24:53.122Z,27.52
2023-03-16T00:27:20.442Z,29.70
2023-03-16T00:29:48.877Z,27.92
2023-03-16T00:32:21.056Z,31.77
2023-03-16T00:34:48.203Z,33.05
2023-03-16T00:37:19.476Z,32.50
2023-03-16T00:39:47.536Z,33.80
2023-03-16T00:42:15.440Z,36.70
2023-03-16T00:44:43.280Z,31.75
2023-03-16T00:47:14.779Z,34.72
2023-03-16T00:49:44.797Z,29.85
2023-03-16T00:52:16.434Z,37.00
2023-03-16T00:54:44.408Z,30.05
2023-03-16T00:57:14.102Z,28.30
2023-03-16T00:59:41.235Z,29.67
2023-03-16T01:02:10.170Z,34.45
2023-03-16T01:04:37.712Z,32.72
2023-03-16T01:07:05.618Z,35.50
2023-03-16T01:09:37.199Z,30.50
2023-03-16T01:12:09.315Z,36.42
2023-03-16T01:14:37.004Z,32.25
2023-03-16T01:17:05.398Z,28.95
2023-03-16T01:19:34.324Z,37.80
2023-03-16T01:22:02.248Z,33.08
2023-03-16T01:24:29.161Z,32.13
2023-03-16T01:26:55.933Z,34.50
2023-03-16T01:29:23.115Z,30.05
2023-03-16T01:31:50.514Z,33.75
2023-03-16T01:34:18.796Z,34.85
2023-03-16T01:36:48.049Z,37.08
2023-03-16T01:39:15.833Z,38.70
2023-03-16T01:41:43.656Z,33.30
2023-03-16T01:44:16.595Z,38.85
2023-03-16T01:46:44.768Z,38.80
2023-03-16T01:49:25.313Z,34.15
2023-03-16T01:52:06.125Z,34.05
2023-03-16T01:54:32.937Z,32.85
2023-03-16T01:57:15.504Z,36.03
2023-03-16T01:59:47.177Z,33.92
2023-03-16T02:02:16.378Z,37.40
2023-03-16T02:05:07.228Z,31.20
2023-03-16T02:07:38.219Z,37.63
2023-03-16T02:10:07.041Z,37.55
2023-03-16T02:12:33.934Z,31.25
2023-03-16T02:15:00.577Z,29.38
2023-03-16T02:17:29.293Z,32.67
2023-03-16T02:20:29.074Z,29.92
2023-03-16T02:22:56.037Z,35.45
2023-03-16T02:25:26.805Z,34.15
2023-03-16T02:28:21.616Z,26.33
2023-03-16T02:30:48.748Z,33.13
2023-03-16T02:33:16.770Z,32.28
2023-03-16T02:35:43.465Z,28.65
2023-03-16T02:38:10.439Z,25.10
2023-03-16T02:40:38.787Z,32.22
2023-03-16T02:43:13.021Z,31.70
2023-03-16T02:45:53.076Z,33.58
2023-03-16T02:48:25.465Z,33.60
2023-03-16T02:50:54.017Z,30.02
2023-03-16T02:53:21.055Z,30.35
2023-03-16T02:55:47.788Z,32.65
2023-03-16T02:58:16.149Z,38.38
2023-03-16T03:00:43.143Z,50.38
2023-03-16T03:03:09.971Z,42.70
2023-03-16T03:05:37.683Z,43.30
2023-03-16T03:08:05.405Z,45.83
2023-03-16T03:10:32.352Z,52.92
2023-03-16T03:12:59.092Z,56.70
2023-03-16T03:15:25.745Z,47.28
2023-03-16T03:17:53.082Z,63.00
2023-03-16T03:20:20.109Z,53.58
2023-03-16T03:22:48.873Z,43.92
2023-03-16T03:25:18.604Z,46.60
2023-03-16T03:27:46.569Z,54.85
2023-03-16T03:30:15.923Z,44.97
2023-03-16T03:32:44.328Z,48.35
2023-03-16T03:35:12.868Z,49.88
2023-03-16T03:37:41.332Z,44.83
2023-03-16T03:40:10.454Z,53.05
2023-03-16T03:42:37.465Z,42.83
2023-03-16T03:45:04.740Z,45.30
2023-03-16T03:47:31.738Z,49.88
2023-03-16T03:49:58.424Z,49.20
2023-03-16T03:52:25.140Z,53.83
2023-03-16T03:54:51.778Z,51.08
2023-03-16T03:57:19.861Z,56.67
2023-03-16T03:59:48.348Z,56.95
2023-03-16T04:02:15.238Z,64.50
2023-03-16T04:04:42.391Z,58.97
2023-03-16T04:07:09.500Z,64.40
2023-03-16T04:09:36.628Z,58.45
2023-03-16T04:12:05.570Z,56.03
2023-03-16T04:14:32.775Z,57.15
2023-03-16T04:16:59.578Z,70.55
2023-03-16T04:19:26.457Z,66.28
2023-03-16T04:21:53.345Z,61.58
2023-03-16T04:24:20.126Z,66.10
2023-03-16T04:26:47.008Z,83.97
2023-03-16T04:29:15.016Z,66.75
2023-03-16T04:31:42.522Z,65.40
2023-03-16T04:34:09.408Z,65.47
2023-03-16T04:36:36.072Z,48.38
2023-03-16T04:39:03.179Z,55.33
2023-03-16T04:41:29.961Z,48.15
2023-03-16T04:43:57.858Z,56.03
2023-03-16T04:46:26.977Z,51.10
2023-03-16T04:48:54.351Z,59.38
2023-03-16T04:51:21.663Z,61.33
2023-03-16T04:53:48.327Z,59.22
2023-03-16T04:56:19.897Z,50.55
2023-03-16T04:58:47.878Z,57.90
2023-03-16T05:01:15.497Z,53.10
2023-03-16T05:03:43.720Z,56.13
2023-03-16T05:06:12.063Z,60.28
2023-03-16T05:08:38.895Z,55.28
2023-03-16T05:11:05.872Z,54.70
2023-03-16T05:13:32.951Z,55.47
2023-03-16T05:15:59.821Z,66.18
2023-03-16T05:18:27.127Z,59.65
2023-03-16T05:20:56.177Z,70.82
2023-03-16T05:23:23.483Z,57.92
2023-03-16T05:25:50.839Z,57.13
2023-03-16T05:28:17.726Z,63.78
2023-03-16T05:30:45.501Z,68.13
2023-03-16T05:33:12.696Z,64.93
2023-03-16T05:35:39.690Z,52.08
2023-03-16T05:38:06.522Z,54.65
2023-03-16T05:40:43.478Z,55.90
2023-03-16T05:43:10.578Z,58.25
2023-03-16T05:45:37.373Z,64.75
2023-03-16T05:48:06.025Z,64.65
2023-03-16T05:50:32.886Z,66.70
2023-03-16T05:52:59.689Z,64.32
2023-03-16T05:55:26.453Z,46.67
2023-03-16T05:57:53.174Z,61.15
2023-03-16T06:00:20.997Z,78.60
2023-03-16T06:02:49.366Z,54.20
2023-03-16T06:05:21.942Z,62.63
2023-03-16T06:07:50.232Z,71.90
2023-03-16T06:10:17.507Z,72.65
2023-03-16T06:12:44.721Z,52.75
2023-03-16T06:15:11.888Z,81.90
2023-03-16T06:17:39.635Z,56.35
2023-03-16T06:20:11.477Z,65.32
2023-03-16T06:22:39.617Z,56.75
2023-03-16T06:25:07.024Z,55.05
2023-03-16T06:27:33.802Z,48.10
2023-03-16T06:30:00.794Z,59.95
2023-03-16T06:32:27.513Z,65.15
2023-03-16T06:34:54.175Z,57.63
2023-03-16T06:37:21.911Z,59.85
2023-03-16T06:39:48.784Z,53.33
2023-03-16T06:42:15.677Z,68.38
2023-03-16T06:44:42.845Z,70.22
2023-03-16T06:47:10.534Z,61.58
2023-03-16T06:49:37.473Z,54.60
2023-03-16T06:52:04.580Z,54.67
2023-03-16T06:54:34.395Z,43.78
2023-03-16T06:57:01.735Z,45.00
2023-03-16T06:59:28.729Z,55.20
2023-03-16T07:01:56.235Z,49.92
2023-03-16T07:04:23.094Z,57.40
2023-03-16T07:06:49.858Z,65.35
2023-03-16T07:09:16.572Z,63.78
2023-03-16T07:11:43.468Z,48.17
2023-03-16T07:14:10.195Z,55.83
2023-03-16T07:16:36.891Z,79.65
2023-03-16T07:19:03.786Z,61.15
2023-03-16T07:21:32.262Z,52.90
2023-03-16T07:23:59.002Z,55.97
2023-03-16T07:26:25.706Z,47.13
2023-03-16T07:28:52.439Z,63.80
2023-03-16T07:31:19.283Z,51.53
2023-03-16T07:33:46.323Z,55.28
2023-03-16T07:36:13.067Z,47.80
2023-03-16T07:38:40.237Z,44.85
2023-03-16T07:41:06.950Z,47.17
2023-03-16T07:43:34.506Z,42.20
2023-03-16T07:46:01.636Z,47.38
2023-03-16T07:48:28.529Z,57.72
2023-03-16T07:50:55.544Z,49.53
2023-03-16T07:53:22.813Z,47.88
2023-03-16T07:55:49.631Z,43.40
2023-03-16T07:58:16.437Z,52.70
2023-03-16T08:00:43.226Z,51.17
2023-03-16T08:03:10.253Z,59.03
2023-03-16T08:05:37.034Z,55.22
2023-03-16T08:08:03.932Z,49.78
2023-03-16T08:10:31.600Z,49.55
2023-03-16T08:12:59.063Z,51.78
2023-03-16T08:15:25.976Z,52.75
2023-03-16T08:17:52.790Z,56.60
2023-03-16T08:20:19.711Z,70.75
2023-03-16T08:22:46.985Z,40.95
2023-03-16T08:25:14.835Z,55.05
2023-03-16T08:27:43.253Z,52.97
2023-03-16T08:30:11.870Z,51.53
2023-03-16T08:32:52.596Z,45.00
2023-03-16T08:35:19.605Z,48.33
2023-03-16T08:37:46.618Z,44.58
2023-03-16T08:40:18.906Z,45.70
2023-03-16T08:42:45.979Z,45.65
2023-03-16T08:45:14.305Z,55.78
2023-03-16T08:47:41.387Z,56.42
2023-03-16T08:50:09.383Z,55.25
2023-03-16T08:52:38.899Z,58.83
2023-03-16T08:55:06.622Z,54.72
2023-03-16T08:57:34.130Z,46.22
2023-03-16T09:00:01.552Z,46.80
2023-03-16T09:02:29.172Z,55.90
2023-03-16T09:04:56.512Z,47.53
2023-03-16T09:07:23.615Z,53.17
2023-03-16T09:09:51.019Z,55.55
2023-03-16T09:12:17.955Z,53.58
2023-03-16T09:14:46.175Z,49.97
2023-03-16T09:17:16.062Z,47.72
2023-03-16T09:19:52.145Z,48.40
2023-03-16T09:22:20.637Z,36.78
2023-03-16T09:24:48.663Z,43.70
2023-03-16T09:27:18.606Z,48.08
2023-03-16T09:29:45.580Z,56.67
2023-03-16T09:32:13.223Z,37.53
2023-03-16T09:34:40.367Z,51.63
2023-03-16T09:37:07.312Z,53.40
2023-03-16T09:39:34.120Z,52.80
2023-03-16T09:42:04.578Z,63.28
2023-03-16T09:45:00.630Z,64.20
2023-03-16T09:47:31.582Z,47.42
2023-03-16T09:50:01.059Z,56.65
2023-03-16T09:52:49.248Z,53.00
2023-03-16T09:55:25.031Z,53.13
2023-03-16T09:57:53.872Z,52.38
2023-03-16T10:00:22.284Z,45.17
2023-03-16T10:03:08.389Z,46.03
2023-03-16T10:05:36.194Z,50.03
2023-03-16T10:08:25.336Z,57.40
2023-03-16T10:11:38.706Z,56.10
2023-03-16T10:14:17.845Z,50.60
2023-03-16T10:17:10.820Z,44.85
2023-03-16T10:19:54.396Z,49.20
2023-03-16T10:22:29.917Z,42.47
2023-03-16T10:25:39.702Z,67.60
2023-03-16T10:28:06.633Z,52.53
2023-03-16T10:30:37.538Z,53.15
2023-03-16T10:33:13.474Z,36.40
2023-03-16T10:35:51.812Z,42.65
2023-03-16T10:38:29.106Z,40.10
2023-03-16T10:40:57.960Z,44.50
2023-03-16T10:43:25.400Z,40.88
2023-03-16T10:45:52.398Z,39.00
2023-03-16T10:48:21.327Z,40.95
2023-03-16T10:50:52.791Z,44.92
2023-03-16T10:53:28.997Z,48.60
2023-03-16T10:56:00.885Z,46.85
2023-03-16T10:58:31.072Z,45.15
2023-03-16T11:00:58.654Z,42.30
2023-03-16T11:03:41.314Z,44.15
2023-03-16T11:06:20.702Z,44.28
2023-03-16T11:08:47.975Z,36.30
2023-03-16T11:11:18.811Z,38.30
2023-03-16T11:13:47.703Z,37.05
2023-03-16T11:16:30.706Z,35.42
2023-03-16T11:19:00.795Z,31.63
2023-03-16T11:21:46.927Z,35.53
2023-03-16T11:24:23.903Z,39.67
2023-03-16T11:26:56.044Z,34.70
2023-03-16T11:29:34.886Z,34.65
2023-03-16T11:32:06.172Z,37.50
2023-03-16T11:34:33.398Z,38.15
2023-03-16T11:37:13.248Z,50.47
2023-03-16T11:39:46.236Z,40.92
2023-03-16T11:42:34.539Z,35.55
2023-03-16T11:45:19.703Z,44.50
2023-03-16T11:48:03.129Z,38.17
2023-03-16T11:50:52.853Z,39.50
2023-03-16T11:54:00.390Z,38.90
2023-03-16T11:56:44.313Z,38.00
2023-03-16T11:59:11.298Z,37.45
2023-03-16T12:02:00.706Z,38.05
2023-03-16T12:04:56.999Z,36.50
2023-03-16T12:07:56.967Z,36.88
2023-03-16T12:10:26.808Z,35.38
2023-03-16T12:13:08.820Z,31.63
2023-03-16T12:15:55.547Z,35.10
2023-03-16T12:18:43.906Z,33.95
2023-03-16T12:21:15.077Z,31.85
2023-03-16T12:23:53.454Z,37.13
2023-03-16T12:26:22.479Z,36.63
2023-03-16T12:28:50.851Z,39.85
2023-03-16T12:31:22.808Z,37.28
2023-03-16T12:33:59.036Z,36.47
2023-03-16T12:37:07.408Z,39.72
2023-03-16T12:40:08.098Z,42.35
2023-03-16T12:43:06.003Z,46.40
2023-03-16T12:45:42.194Z,45.72
2023-03-16T12:48:12.745Z,44.50
2023-03-16T12:51:09.097Z,44.40
2023-03-16T12:54:06.424Z,36.97
2023-03-16T12:56:36.030Z,47.90
2023-03-16T12:59:05.996Z,48.17
2023-03-16T13:01:42.728Z,37.47
2023-03-16T13:04:12.635Z,41.03
2023-03-16T13:06:44.460Z,48.88
2023-03-16T13:09:12.537Z,43.67
2023-03-16T13:11:50.142Z,43.78
2023-03-16T13:14:38.754Z,41.65
2023-03-16T13:17:29.688Z,40.88
2023-03-16T13:20:31.271Z,29.50
2023-03-16T13:23:24.692Z,42.47
2023-03-16T13:26:20.019Z,38.42
2023-03-16T13:28:51.573Z,44.70
2023-03-16T13:31:25.790Z,40.90
2023-03-16T13:33:56.016Z,37.40
2023-03-16T13:36:25.525Z,48.63
2023-03-16T13:39:13.639Z,34.90
2023-03-16T13:41:43.616Z,42.00
2023-03-16T13:44:15.216Z,44.65
2023-03-16T13:46:41.900Z,46.42
2023-03-16T13:49:12.197Z,46.65
2023-03-16T13:51:38.874Z,34.50
2023-03-16T13:54:16.261Z,36.58
2023-03-16T13:56:44.417Z,36.70
2023-03-16T13:59:11.749Z,33.05
2023-03-16T14:01:39.030Z,35.17
2023-03-16T14:04:13.647Z,33.40
2023-03-16T14:06:41.487Z,39.05
2023-03-16T14:09:22.077Z,39.38
2023-03-16T14:11:48.938Z,30.13
2023-03-16T14:14:17.833Z,34.90
2023-03-16T14:16:44.780Z,37.03
2023-03-16T14:19:23.042Z,33.08
2023-03-16T14:21:50.176Z,27.30
2023-03-16T14:24:43.116Z,25.52
2023-03-16T14:27:21.989Z,37.05
2023-03-16T14:30:14.788Z,47.65
2023-03-16T14:32:42.023Z,35.80
2023-03-16T14:35:18.365Z,39.25
2023-03-16T14:37:45.120Z,28.48
2023-03-16T14:40:22.982Z,16.95
2023-03-16T14:42:49.982Z,23.58
2023-03-16T14:45:17.707Z,25.95
2023-03-16T14:47:46.229Z,23.23
2023-03-16T14:50:39.378Z,24.70
2023-03-16T14:53:06.955Z,25.42
2023-03-16T14:55:33.763Z,25.45
2023-03-16T14:58:00.620Z,29.42
2023-03-16T15:00:27.325Z,24.08
2023-03-16T15:03:06.779Z,26.75
2023-03-16T15:05:39.270Z,28.30
2023-03-16T15:08:07.880Z,33.63
2023-03-16T15:10:35.485Z,33.03
2023-03-16T15:13:13.144Z,32.35
2023-03-16T15:15:44.176Z,22.58
2023-03-16T15:18:11.003Z,23.40
2023-03-16T15:20:43.482Z,28.58
2023-03-16T15:23:13.913Z,27.67
2023-03-16T15:25:44.967Z,23.40
2023-03-16T15:28:26.121Z,23.30
2023-03-16T15:30:54.638Z,22.30
2023-03-16T15:33:22.213Z,34.85
2023-03-16T15:35:50.206Z,26.17
2023-03-16T15:38:21.576Z,40.92
2023-03-16T15:40:51.346Z,24.73
2023-03-16T15:43:24.663Z,32.00
2023-03-16T15:45:54.844Z,44.67
2023-03-16T15:48:24.724Z,35.33
2023-03-16T15:50:58.890Z,40.65
2023-03-16T15:53:35.778Z,29.25
2023-03-16T15:56:11.713Z,33.95
2023-03-16T15:58:42.003Z,31.35
2023-03-16T16:01:21.386Z,29.58
2023-03-16T16:03:48.537Z,35.00
2023-03-16T16:06:15.290Z,27.30
2023-03-16T16:08:42.067Z,23.38
2023-03-16T16:11:35.171Z,26.20
2023-03-16T16:14:02.299Z,24.42
2023-03-16T16:16:29.916Z,49.45
2023-03-16T16:18:57.076Z,33.97
2023-03-16T16:21:28.088Z,39.10
2023-03-16T16:23:55.194Z,32.22
2023-03-16T16:26:47.029Z,32.03
2023-03-16T16:29:16.826Z,22.65
2023-03-16T16:31:44.097Z,30.45
2023-03-16T16:34:16.145Z,33.42
2023-03-16T16:36:43.497Z,27.85
2023-03-16T16:39:10.412Z,33.42
2023-03-16T16:41:37.538Z,25.15
2023-03-16T16:44:08.441Z,26.52
2023-03-16T16:46:42.551Z,32.45
2023-03-16T16:49:19.651Z,36.28
2023-03-16T16:51:46.904Z,27.77
2023-03-16T16:54:22.104Z,24.52
2023-03-16T16:56:50.897Z,26.38
2023-03-16T16:59:23.356Z,34.70
2023-03-16T17:01:57.678Z,23.10
2023-03-16T17:04:27.282Z,37.45
2023-03-16T17:07:01.624Z,32.35
2023-03-16T17:09:30.247Z,25.98
2023-03-16T17:11:59.279Z,22.00
2023-03-16T17:14:28.565Z,32.05
2023-03-16T17:16:55.782Z,26.67
2023-03-16T17:19:24.953Z,29.20
2023-03-16T17:21:53.067Z,28.77
2023-03-16T17:24:19.915Z,32.88
2023-03-16T17:26:51.257Z,30.30
2023-03-16T17:29:38.255Z,20.15
2023-03-16T17:32:17.439Z,27.95
2023-03-16T17:34:44.285Z,22.38
2023-03-16T17:37:21.167Z,24.13
2023-03-16T17:39:48.323Z,21.30
2023-03-16T17:42:19.549Z,22.70
2023-03-16T17:44:48.321Z,25.65
2023-03-16T17:47:24.740Z,23.42
2023-03-16T17:49:52.105Z,23.45
2023-03-16T17:52:21.186Z,21.63
2023-03-16T17:54:49.289Z,32.65
2023-03-16T17:57:27.771Z,25.17
2023-03-16T17:59:55.098Z,19.58
2023-03-16T18:02:51.721Z,24.33
2023-03-16T18:05:23.861Z,21.40
2023-03-16T18:07:51.818Z,21.63
2023-03-16T18:10:27.098Z,23.50
2023-03-16T18:15:34.398Z,23.17
2023-03-16T18:18:02.116Z,18.55
2023-03-16T18:20:36.337Z,21.33
2023-03-16T18:23:15.874Z,16.33
2023-03-16T18:25:43.116Z,17.40
2023-03-16T18:28:10.996Z,20.60
2023-03-16T18:30:39.097Z,23.80
2023-03-16T18:33:07.489Z,20.77
2023-03-16T18:35:35.629Z,25.73
2023-03-16T18:38:03.220Z,15.65
2023-03-16T18:40:30.659Z,18.85
2023-03-16T18:42:57.761Z,18.85
2023-03-16T18:45:25.663Z,18.60
2023-03-16T18:47:56.628Z,18.77
2023-03-16T18:50:28.294Z,21.73
2023-03-16T18:52:55.592Z,16.42
2023-03-16T18:55:25.206Z,18.63
2023-03-16T18:57:56.430Z,17.90
2023-03-16T19:00:27.300Z,16.67
2023-03-16T19:02:57.010Z,21.63
2023-03-16T19:05:31.854Z,20.80
2023-03-16T19:07:58.614Z,16.83
2023-03-16T19:10:30.135Z,24.45
2023-03-16T19:12:56.892Z,14.63
2023-03-16T19:15:29.544Z,14.43
2023-03-16T19:17:56.612Z,12.30
2023-03-16T19:20:25.796Z,21.73
2023-03-16T19:23:00.936Z,16.60
2023-03-16T19:25:34.886Z,12.90
2023-03-16T19:28:02.217Z,14.50
2023-03-16T19:30:31.212Z,13.45
2023-03-16T19:32:58.729Z,15.30
2023-03-16T19:35:44.259Z,19.80
2023-03-16T19:38:14.438Z,19.35
2023-03-16T19:40:41.767Z,17.30
2023-03-16T19:43:18.918Z,17.70
2023-03-16T19:45:46.992Z,17.83
2023-03-16T19:48:16.512Z,18.35
2023-03-16T19:50:43.279Z,19.27
2023-03-16T19:53:16.357Z,11.80
2023-03-16T19:55:44.692Z,14.77
2023-03-16T19:58:21.038Z,8.57
2023-03-16T20:00:47.894Z,9.32
2023-03-16T20:03:14.882Z,7.32
2023-03-16T20:05:41.569Z,14.88
2023-03-16T20:08:29.013Z,13.18
2023-03-16T20:11:01.787Z,8.10
2023-03-16T20:13:29.028Z,23.25
2023-03-16T20:15:56.110Z,19.05
2023-03-16T20:18:23.794Z,15.57
2023-03-16T20:20:50.912Z,19.38
2023-03-16T20:23:19.208Z,22.55
2023-03-16T20:25:47.814Z,16.60
2023-03-16T20:28:19.164Z,15.57
2023-03-16T20:30:47.365Z,11.45
2023-03-16T20:33:23.788Z,9.57
2023-03-16T20:35:53.620Z,8.80
2023-03-16T20:38:21.338Z,9.02
2023-03-16T20:40:52.406Z,6.88
2023-03-16T20:43:23.771Z,11.25
2023-03-16T20:45:51.846Z,11.60
2023-03-16T20:48:19.033Z,12.93
2023-03-16T20:50:48.411Z,14.30
2023-03-16T20:53:15.217Z,13.35
2023-03-16T20:55:41.985Z,11.27
2023-03-16T20:58:20.899Z,15.15
2023-03-16T21:00:50.647Z,16.30
2023-03-16T21:03:23.187Z,19.83
2023-03-16T21:05:51.676Z,18.27
2023-03-16T21:08:19.317Z,13.45
2023-03-16T21:10:48.657Z,11.63
2023-03-16T21:13:25.796Z,19.20
2023-03-16T21:15:52.916Z,6.35
2023-03-16T21:18:20.926Z,6.72
2023-03-16T21:20:49.481Z,6.40
2023-03-16T21:23:23.891Z,7.32
2023-03-16T21:25:57.523Z,8.97
2023-03-16T21:28:29.064Z,20.88
2023-03-16T21:30:57.623Z,13.13
2023-03-16T21:33:38.150Z,17.30
2023-03-16T21:36:08.341Z,9.38
2023-03-16T21:38:35.027Z,14.27
2023-03-16T21:41:01.684Z,9.52
2023-03-16T21:43:28.495Z,15.57
2023-03-16T21:45:55.634Z,14.70
2023-03-16T21:48:39.800Z,4.03
2023-03-16T21:51:14.945Z,9.90
2023-03-16T21:53:41.974Z,5.00
2023-03-16T21:56:13.257Z,6.18
2023-03-16T21:58:40.067Z,5.25
2023-03-16T22:01:07.185Z,4.22
2023-03-16T22:03:50.149Z,4.78
2023-03-16T22:06:17.354Z,7.93
2023-03-16T22:08:44.281Z,6.10
2023-03-16T22:11:22.762Z,8.43
2023-03-16T22:13:51.151Z,5.63
2023-03-16T22:16:23.418Z,4.63
2023-03-16T22:18:58.811Z,19.90
2023-03-16T22:23:57.778Z,8.50
2023-03-16T22:26:25.216Z,6.38
2023-03-16T22:28:52.587Z,7.20
2023-03-16T22:31:39.512Z,11.40
2023-03-16T22:34:06.899Z,10.50
2023-03-16T22:36:34.041Z,8.77
2023-03-16T22:39:12.614Z,4.25
2023-03-16T22:41:39.507Z,3.95
2023-03-16T22:44:08.948Z,6.47
2023-03-16T22:46:35.784Z,4.82
2023-03-16T22:49:02.472Z,8.40
2023-03-16T22:51:35.148Z,17.80
2023-03-16T22:54:04.652Z,11.60
2023-03-16T22:56:32.568Z,8.95
2023-03-16T22:59:02.677Z,7.72
2023-03-16T23:01:34.224Z,14.90
2023-03-16T23:04:02.010Z,10.05
2023-03-16T23:06:33.775Z,7.35
2023-03-16T23:09:00.873Z,9.35
2023-03-16T23:11:32.995Z,10.48
2023-03-16T23:14:00.763Z,10.45
2023-03-16T23:16:30.570Z,8.90
2023-03-16T23:18:57.435Z,10.68
2023-03-16T23:21:25.838Z,5.05
2023-03-16T23:24:03.130Z,3.75
2023-03-16T23:26:31.167Z,3.20
2023-03-16T23:28:58.186Z,4.90
2023-03-16T23:31:27.323Z,7.60
2023-03-16T23:33:54.427Z,15.85
2023-03-16T23:36:23.103Z,6.82
2023-03-16T23:38:50.628Z,12.20
2023-03-16T23:41:21.756Z,13.60
2023-03-16T23:43:49.398Z,8.98
2023-03-16T23:46:21.156Z,6.45
2023-03-16T23:48:49.447Z,5.90
2023-03-16T23:51:26.527Z,9.15
2023-03-16T23:53:54.057Z,9.13
2023-03-16T23:56:21.693Z,8.77
2023-03-16T23:58:48.877Z,7.68
